KSGU/SGU METAR and TAF weather

Enter ICAO airport designator
Station Type Date Time Source
KSGU METAR 2021/07/29 02:56 UTC NOAA

KSGU 290256Z AUTO 22006KT 10SM CLR 36/13 A2996 RMK AO2 SLP102 6//// T03560128 55002 PNO $


Station Type Date Time Source
KSGU Decoded METAR 2021/07/29 02:56 UTC NOAA

St George, St George Municipal Airport, UT, United States (KSGU) 37-05N 113-36W
Jul 28, 2021 - 10:56 PM EDT / 2021.07.29 0256 UTC
Wind: from the SW (220 degrees) at 7 MPH (6 KT):0
Visibility: 10 mile(s):0
Sky conditions: clear
Temperature: 96.1 F (35.6 C)
Heat index: 94.1 F (34.5 C):1
Dew Point: 55.0 F (12.8 C)
Relative Humidity: 25%
Pressure (altimeter): 29.96 in. Hg (1014 hPa)
Pressure tendency: 0.01 inches (0.2 hPa) lower than three hours ago
ob: KSGU 290256Z AUTO 22006KT 10SM CLR 36/13 A2996 RMK AO2 SLP102 6//// T03560128 55002 PNO
cycle: 3

Station Type Date Time Source
KSGU TAF 2021/07/28 21:21 UTC NOAA

TAF
AMD KSGU 282119Z 2821/2918 30007KT P6SM SCT150
FM290300 12007KT P6SM FEW120 BKN150

Example: see airport list